createdAt,value
2023-07-26T00:01:39.175Z,22.00
2023-07-26T00:04:06.289Z,21.88
2023-07-26T00:06:33.025Z,21.87
2023-07-26T00:08:59.623Z,21.87
2023-07-26T00:11:26.075Z,21.89
2023-07-26T00:13:52.514Z,21.83
2023-07-26T00:16:19.162Z,21.84
2023-07-26T00:18:45.675Z,21.73
2023-07-26T00:21:12.111Z,21.64
2023-07-26T00:23:38.577Z,21.78
2023-07-26T00:26:04.989Z,21.67
2023-07-26T00:28:31.477Z,21.88
2023-07-26T00:30:57.974Z,21.83
2023-07-26T00:33:24.483Z,21.79
2023-07-26T00:35:50.999Z,21.72
2023-07-26T00:38:17.672Z,21.65
2023-07-26T00:40:44.386Z,21.59
2023-07-26T00:43:11.131Z,21.61
2023-07-26T00:45:40.214Z,21.70
2023-07-26T00:48:07.226Z,21.74
2023-07-26T00:50:33.767Z,21.75
2023-07-26T00:53:00.334Z,21.56
2023-07-26T00:55:27.104Z,21.59
2023-07-26T00:57:53.613Z,21.69
2023-07-26T01:00:20.079Z,21.71
2023-07-26T01:02:47.045Z,21.78
2023-07-26T01:05:13.598Z,21.76
2023-07-26T01:07:53.175Z,21.82
2023-07-26T01:10:26.454Z,21.80
2023-07-26T01:13:18.250Z,21.55
2023-07-26T01:15:46.917Z,21.83
2023-07-26T01:18:17.692Z,21.72
2023-07-26T01:20:44.498Z,21.82
2023-07-26T01:23:11.231Z,21.86
2023-07-26T01:25:37.751Z,21.77
2023-07-26T01:28:04.769Z,21.85
2023-07-26T01:30:33.708Z,21.86
2023-07-26T01:33:01.635Z,21.79
2023-07-26T01:35:29.058Z,21.88
2023-07-26T01:37:56.287Z,21.82
2023-07-26T01:40:23.419Z,21.75
2023-07-26T01:42:50.522Z,22.02
2023-07-26T01:45:17.138Z,21.90
2023-07-26T01:47:43.606Z,21.83
2023-07-26T01:50:10.527Z,21.86
2023-07-26T01:52:37.148Z,22.00
2023-07-26T01:55:04.241Z,22.13
2023-07-26T01:57:30.669Z,22.06
2023-07-26T01:59:57.186Z,21.91
2023-07-26T02:02:23.963Z,22.05
2023-07-26T02:04:50.684Z,21.99
2023-07-26T02:07:17.106Z,22.04
2023-07-26T02:09:44.637Z,22.00
2023-07-26T02:12:11.069Z,21.89
2023-07-26T02:14:37.503Z,22.03
2023-07-26T02:17:03.952Z,22.03
2023-07-26T02:19:30.371Z,21.96
2023-07-26T02:21:56.807Z,22.04
2023-07-26T02:24:23.300Z,21.81
2023-07-26T02:26:49.710Z,21.84
2023-07-26T02:29:16.158Z,21.88
2023-07-26T02:31:42.697Z,21.84
2023-07-26T02:34:09.170Z,21.64
2023-07-26T02:36:35.584Z,21.66
2023-07-26T02:39:02.006Z,21.66
2023-07-26T02:41:28.468Z,21.82
2023-07-26T02:43:54.942Z,21.75
2023-07-26T02:46:21.393Z,21.85
2023-07-26T02:48:47.852Z,21.78
2023-07-26T02:51:14.319Z,21.78
2023-07-26T02:53:40.819Z,21.70
2023-07-26T02:56:07.302Z,21.73
2023-07-26T02:58:33.711Z,21.77
2023-07-26T03:01:00.194Z,21.73
2023-07-26T03:03:26.808Z,21.72
2023-07-26T03:05:53.327Z,21.68
2023-07-26T03:08:19.755Z,21.72
2023-07-26T03:10:46.214Z,21.68
2023-07-26T03:13:12.652Z,21.55
2023-07-26T03:15:40.520Z,21.68
2023-07-26T03:18:07.106Z,21.82
2023-07-26T03:20:33.546Z,21.92
2023-07-26T03:23:00.054Z,21.80
2023-07-26T03:25:26.529Z,21.73
2023-07-26T03:27:52.958Z,21.76
2023-07-26T03:30:19.561Z,21.85
2023-07-26T03:32:46.054Z,21.85
2023-07-26T03:35:12.522Z,21.92
2023-07-26T03:37:38.991Z,21.79
2023-07-26T03:40:05.985Z,21.82
2023-07-26T03:42:32.411Z,21.79
2023-07-26T03:44:58.818Z,21.74
2023-07-26T03:47:25.271Z,21.81
2023-07-26T03:49:51.677Z,21.70
2023-07-26T03:52:18.097Z,21.72
2023-07-26T03:54:45.893Z,21.85
2023-07-26T03:57:12.349Z,21.84
2023-07-26T03:59:38.774Z,21.82
2023-07-26T04:02:05.714Z,21.77
2023-07-26T04:04:34.091Z,21.85
2023-07-26T04:07:00.735Z,21.84
2023-07-26T04:09:27.174Z,21.81
2023-07-26T04:11:56.286Z,21.95
2023-07-26T04:14:23.184Z,21.85
2023-07-26T04:16:50.534Z,22.07
2023-07-26T04:19:17.014Z,22.17
2023-07-26T04:21:43.460Z,21.86
2023-07-26T04:24:09.926Z,22.12
2023-07-26T04:26:36.465Z,22.20
2023-07-26T04:29:02.908Z,22.19
2023-07-26T04:31:29.353Z,22.35
2023-07-26T04:33:55.871Z,22.40
2023-07-26T04:36:22.340Z,22.52
2023-07-26T04:38:48.764Z,22.47
2023-07-26T04:41:15.233Z,22.64
2023-07-26T04:43:41.673Z,22.71
2023-07-26T04:46:08.098Z,22.43
2023-07-26T04:48:34.590Z,22.40
2023-07-26T04:51:01.015Z,22.59
2023-07-26T04:53:27.473Z,22.64
2023-07-26T04:55:53.932Z,22.75
2023-07-26T04:58:20.365Z,22.81
2023-07-26T05:00:47.031Z,22.73
2023-07-26T05:03:13.732Z,22.73
2023-07-26T05:05:40.726Z,22.70
2023-07-26T05:08:08.019Z,22.82
2023-07-26T05:10:35.414Z,22.71
2023-07-26T05:13:01.928Z,22.67
2023-07-26T05:15:28.471Z,22.64
2023-07-26T05:17:54.972Z,22.70
2023-07-26T05:20:21.464Z,22.73
2023-07-26T05:22:47.905Z,22.79
2023-07-26T05:25:14.409Z,22.92
2023-07-26T05:27:40.829Z,23.14
2023-07-26T05:30:07.870Z,23.28
2023-07-26T05:32:34.450Z,23.28
2023-07-26T05:35:00.965Z,23.42
2023-07-26T05:37:27.428Z,23.30
2023-07-26T05:39:53.906Z,23.46
2023-07-26T05:42:20.341Z,23.14
2023-07-26T05:44:46.829Z,23.59
2023-07-26T05:47:14.790Z,23.47
2023-07-26T05:49:44.927Z,23.38
2023-07-26T05:52:11.516Z,23.37
2023-07-26T05:54:38.018Z,23.61
2023-07-26T05:57:04.999Z,23.80
2023-07-26T05:59:31.529Z,23.78
2023-07-26T06:01:59.758Z,23.68
2023-07-26T06:04:26.586Z,23.55
2023-07-26T06:06:53.023Z,23.81
2023-07-26T06:09:22.136Z,23.94
2023-07-26T06:11:56.526Z,24.02
2023-07-26T06:14:25.795Z,24.11
2023-07-26T06:16:52.813Z,24.45
2023-07-26T06:19:19.319Z,24.48
2023-07-26T06:21:45.759Z,24.29
2023-07-26T06:24:12.164Z,24.62
2023-07-26T06:26:38.954Z,24.67
2023-07-26T06:29:05.801Z,24.81
2023-07-26T06:31:32.462Z,24.91
2023-07-26T06:33:59.095Z,25.15
2023-07-26T06:36:25.800Z,24.90
2023-07-26T06:38:52.205Z,25.24
2023-07-26T06:41:18.746Z,25.43
2023-07-26T06:43:45.258Z,25.58
2023-07-26T06:46:11.754Z,25.81
2023-07-26T06:48:38.477Z,25.58
2023-07-26T06:51:05.532Z,25.77
2023-07-26T06:53:32.368Z,25.94
2023-07-26T06:55:59.733Z,26.63
2023-07-26T06:58:26.349Z,26.74
2023-07-26T07:00:53.755Z,26.87
2023-07-26T07:03:20.202Z,26.16
2023-07-26T07:05:46.730Z,26.64
2023-07-26T07:08:13.390Z,26.91
2023-07-26T07:10:39.857Z,26.89
2023-07-26T07:13:06.554Z,26.54
2023-07-26T07:15:33.022Z,26.81
2023-07-26T07:18:13.671Z,26.54
2023-07-26T07:20:42.093Z,26.08
2023-07-26T07:23:09.958Z,26.07
2023-07-26T07:25:39.295Z,24.95
2023-07-26T07:28:05.716Z,25.82
2023-07-26T07:30:33.602Z,26.65
2023-07-26T07:33:00.303Z,26.55
2023-07-26T07:35:26.876Z,26.15
2023-07-26T07:37:53.347Z,26.23
2023-07-26T07:40:20.120Z,26.66
2023-07-26T07:42:46.557Z,27.19
2023-07-26T07:45:13.057Z,27.83
2023-07-26T07:47:39.695Z,28.10
2023-07-26T07:50:06.833Z,28.18
2023-07-26T07:52:33.846Z,28.13
2023-07-26T07:55:00.273Z,28.34
2023-07-26T07:57:26.945Z,27.78
2023-07-26T07:59:55.014Z,28.10
2023-07-26T08:02:24.389Z,28.35
2023-07-26T08:04:50.854Z,28.71
2023-07-26T08:07:17.327Z,28.97
2023-07-26T08:09:43.834Z,28.69
2023-07-26T08:12:10.656Z,28.64
2023-07-26T08:14:37.078Z,28.73
2023-07-26T08:17:03.700Z,28.95
2023-07-26T08:19:30.246Z,28.34
2023-07-26T08:21:56.831Z,28.14
2023-07-26T08:24:26.743Z,28.18
2023-07-26T08:26:53.695Z,28.39
2023-07-26T08:29:20.159Z,27.52
2023-07-26T08:31:46.672Z,27.26
2023-07-26T08:34:13.118Z,27.08
2023-07-26T08:36:39.808Z,27.92
2023-07-26T08:39:07.926Z,27.54
2023-07-26T08:41:36.065Z,28.08
2023-07-26T08:44:03.049Z,27.83
2023-07-26T08:46:29.933Z,27.87
2023-07-26T08:48:57.961Z,28.26
2023-07-26T08:51:25.002Z,28.00
2023-07-26T08:53:51.742Z,27.95
2023-07-26T08:56:19.128Z,27.83
2023-07-26T08:58:45.576Z,28.35
2023-07-26T09:01:12.064Z,28.93
2023-07-26T09:03:38.634Z,29.18
2023-07-26T09:06:06.508Z,29.14
2023-07-26T09:08:33.592Z,28.91
2023-07-26T09:11:04.304Z,27.86
2023-07-26T09:13:30.930Z,28.50
2023-07-26T09:16:01.506Z,28.33
2023-07-26T09:18:29.489Z,27.72
2023-07-26T09:21:03.296Z,27.64
2023-07-26T09:23:29.880Z,27.31
2023-07-26T09:25:56.322Z,26.73
2023-07-26T09:28:22.999Z,27.22
2023-07-26T09:30:52.297Z,27.82
2023-07-26T09:33:18.900Z,28.64
2023-07-26T09:35:46.875Z,29.19
2023-07-26T09:38:24.237Z,29.27
2023-07-26T09:40:50.747Z,29.60
2023-07-26T09:43:30.540Z,29.70
2023-07-26T09:46:07.035Z,29.46
2023-07-26T09:53:37.298Z,29.66
2023-07-26T09:56:04.470Z,29.62
2023-07-26T09:58:33.418Z,29.78
2023-07-26T10:01:02.361Z,29.78
2023-07-26T10:03:29.175Z,29.73
2023-07-26T10:05:56.412Z,29.80
2023-07-26T10:08:23.817Z,29.48
2023-07-26T10:10:51.321Z,29.52
2023-07-26T10:13:20.170Z,30.00
2023-07-26T10:15:49.974Z,30.48
2023-07-26T10:18:18.949Z,29.30
2023-07-26T10:20:46.949Z,28.95
2023-07-26T10:23:13.555Z,28.27
2023-07-26T10:25:41.066Z,28.59
2023-07-26T10:28:08.340Z,29.11
2023-07-26T10:30:34.998Z,28.34
2023-07-26T10:33:01.561Z,28.98
2023-07-26T10:35:33.268Z,28.96
2023-07-26T10:38:01.245Z,28.84
2023-07-26T10:40:33.831Z,28.10
2023-07-26T10:43:01.047Z,28.34
2023-07-26T10:45:45.141Z,28.27
2023-07-26T10:48:23.677Z,28.28
2023-07-26T10:50:50.131Z,28.00
2023-07-26T10:53:37.188Z,27.54
2023-07-26T10:56:18.935Z,28.46
2023-07-26T10:59:25.489Z,29.84
2023-07-26T11:02:03.381Z,30.78
2023-07-26T11:04:29.931Z,30.14
2023-07-26T11:06:58.266Z,30.01
2023-07-26T11:09:26.896Z,30.48
2023-07-26T11:12:04.420Z,30.88
2023-07-26T11:14:33.644Z,31.28
2023-07-26T11:17:10.353Z,30.87
2023-07-26T11:19:47.265Z,30.85
2023-07-26T11:22:13.720Z,30.11
2023-07-26T11:24:40.261Z,29.87
2023-07-26T11:27:07.689Z,29.55
2023-07-26T11:29:35.242Z,29.68
2023-07-26T11:32:02.246Z,29.80
2023-07-26T11:34:28.757Z,29.42
2023-07-26T11:37:09.511Z,29.74
2023-07-26T11:39:36.429Z,29.99
2023-07-26T11:42:03.074Z,30.49
2023-07-26T11:44:29.572Z,31.15
2023-07-26T11:46:56.687Z,31.43
2023-07-26T11:49:24.430Z,31.64
2023-07-26T11:51:52.195Z,31.80
2023-07-26T11:54:18.880Z,31.98
2023-07-26T11:56:46.544Z,32.12
2023-07-26T11:59:13.700Z,31.90
2023-07-26T12:01:40.605Z,31.34
2023-07-26T12:04:14.768Z,31.18
2023-07-26T12:06:42.919Z,31.61
2023-07-26T12:09:12.794Z,32.44
2023-07-26T12:11:42.706Z,31.77
2023-07-26T12:14:10.035Z,31.65
2023-07-26T12:16:36.890Z,31.46
2023-07-26T12:19:04.781Z,31.20
2023-07-26T12:21:31.781Z,31.00
2023-07-26T12:24:03.390Z,30.96
2023-07-26T12:26:33.751Z,31.39
2023-07-26T12:29:01.898Z,31.67
2023-07-26T12:31:31.092Z,31.76
2023-07-26T12:33:58.802Z,32.13
2023-07-26T12:36:31.465Z,31.43
2023-07-26T12:38:58.825Z,31.47
2023-07-26T12:41:25.496Z,31.23
2023-07-26T12:43:57.692Z,30.55
2023-07-26T12:46:24.229Z,30.42
2023-07-26T12:48:54.686Z,30.77
2023-07-26T12:51:21.165Z,30.87
2023-07-26T12:53:47.669Z,30.63
2023-07-26T12:56:14.173Z,30.63
2023-07-26T12:58:49.445Z,31.08
2023-07-26T13:01:27.087Z,31.05
2023-07-26T13:03:53.710Z,31.24
2023-07-26T13:06:20.291Z,31.23
2023-07-26T13:08:46.707Z,31.20
2023-07-26T13:11:14.360Z,30.57
2023-07-26T13:13:40.839Z,30.95
2023-07-26T13:16:07.415Z,31.46
2023-07-26T13:18:34.031Z,32.11
2023-07-26T13:21:00.605Z,31.36
2023-07-26T13:23:27.102Z,31.45
2023-07-26T13:25:53.904Z,31.28
2023-07-26T13:28:20.334Z,30.89
2023-07-26T13:30:46.781Z,30.92
2023-07-26T13:33:13.329Z,31.02
2023-07-26T13:35:40.186Z,29.96
2023-07-26T13:38:06.673Z,29.36
2023-07-26T13:40:33.086Z,28.55
2023-07-26T13:43:00.884Z,27.69
2023-07-26T13:45:27.339Z,26.41
2023-07-26T13:47:53.816Z,25.25
2023-07-26T13:50:20.282Z,24.17
2023-07-26T13:52:46.738Z,24.12
2023-07-26T13:55:13.172Z,24.49
2023-07-26T13:57:40.105Z,24.82
2023-07-26T14:00:07.516Z,24.79
2023-07-26T14:02:34.358Z,24.15
2023-07-26T14:05:01.013Z,25.06
2023-07-26T14:07:27.456Z,25.33
2023-07-26T14:09:54.089Z,25.82
2023-07-26T14:12:20.576Z,26.43
2023-07-26T14:14:47.048Z,26.83
2023-07-26T14:17:13.552Z,26.80
2023-07-26T14:19:40.004Z,26.83
2023-07-26T14:22:06.688Z,26.75
2023-07-26T14:24:33.213Z,27.25
2023-07-26T14:26:59.646Z,26.73
2023-07-26T14:29:26.409Z,27.19
2023-07-26T14:31:54.041Z,27.23
2023-07-26T14:34:22.677Z,27.53
2023-07-26T14:36:49.484Z,27.54
2023-07-26T14:39:15.924Z,27.63
2023-07-26T14:41:42.339Z,27.16
2023-07-26T14:44:08.909Z,26.80
2023-07-26T14:46:35.726Z,26.82
2023-07-26T14:49:02.465Z,27.40
2023-07-26T14:51:28.925Z,26.74
2023-07-26T14:53:55.372Z,27.21
2023-07-26T14:56:21.860Z,27.33
2023-07-26T14:58:48.300Z,27.44
2023-07-26T15:01:14.797Z,26.57
2023-07-26T15:03:41.461Z,26.89
2023-07-26T15:06:08.028Z,27.06
2023-07-26T15:08:34.772Z,26.44
2023-07-26T15:11:01.246Z,26.82
2023-07-26T15:13:27.672Z,26.73
2023-07-26T15:15:54.101Z,27.22
2023-07-26T15:18:20.589Z,28.06
2023-07-26T15:20:47.054Z,28.11
2023-07-26T15:23:13.526Z,28.04
2023-07-26T15:25:40.043Z,28.16
2023-07-26T15:28:08.101Z,28.44
2023-07-26T15:30:37.949Z,28.81
2023-07-26T15:33:04.920Z,29.07
2023-07-26T15:35:37.806Z,28.14
2023-07-26T15:38:04.951Z,28.07
2023-07-26T15:40:32.960Z,28.07
2023-07-26T15:48:15.175Z,30.14
2023-07-26T15:53:11.036Z,30.27
2023-07-26T15:55:37.457Z,29.64
2023-07-26T15:58:03.927Z,29.35
2023-07-26T16:00:31.129Z,28.98
2023-07-26T16:10:28.912Z,28.70
2023-07-26T16:12:55.427Z,28.95
2023-07-26T16:20:21.078Z,29.09
2023-07-26T16:22:47.523Z,28.89
2023-07-26T16:25:14.033Z,29.19
2023-07-26T16:27:40.654Z,29.34
2023-07-26T16:30:07.637Z,29.91
2023-07-26T16:32:34.160Z,29.99
2023-07-26T16:35:00.684Z,29.48
2023-07-26T16:37:27.416Z,29.92
2023-07-26T16:39:53.877Z,30.52
2023-07-26T16:42:20.434Z,30.10
2023-07-26T16:44:46.865Z,30.07
2023-07-26T16:47:13.328Z,29.65
2023-07-26T16:49:39.812Z,28.96
2023-07-26T16:52:06.694Z,28.87
2023-07-26T16:54:33.176Z,28.52
2023-07-26T16:56:59.615Z,28.54
2023-07-26T16:59:26.978Z,28.59
2023-07-26T17:01:53.588Z,28.71
2023-07-26T17:04:20.140Z,28.69
2023-07-26T17:06:46.659Z,28.38
2023-07-26T17:09:13.272Z,28.72
2023-07-26T17:11:39.816Z,28.30
2023-07-26T17:14:06.255Z,28.77
2023-07-26T17:16:33.089Z,29.09
2023-07-26T17:18:59.706Z,29.61
2023-07-26T17:21:26.196Z,29.60
2023-07-26T17:23:52.649Z,29.10
2023-07-26T17:26:19.118Z,28.90
2023-07-26T17:28:45.575Z,28.77
2023-07-26T17:31:12.113Z,28.84
2023-07-26T17:33:38.529Z,29.09
2023-07-26T17:36:12.474Z,29.02
2023-07-26T17:38:39.085Z,29.01
2023-07-26T17:41:06.881Z,29.31
2023-07-26T17:43:34.232Z,29.19
2023-07-26T17:46:00.903Z,29.20
2023-07-26T17:48:27.370Z,29.33
2023-07-26T17:50:55.067Z,29.10
2023-07-26T17:53:22.637Z,29.05
2023-07-26T17:55:49.061Z,28.77
2023-07-26T17:58:15.867Z,28.71
2023-07-26T18:00:42.365Z,28.83
2023-07-26T18:03:08.870Z,28.99
2023-07-26T18:05:35.355Z,28.60
2023-07-26T18:08:03.083Z,28.32
2023-07-26T18:10:29.665Z,27.85
2023-07-26T18:12:56.154Z,27.24
2023-07-26T18:15:22.575Z,27.31
2023-07-26T18:17:49.079Z,27.59
2023-07-26T18:20:15.685Z,27.43
2023-07-26T18:22:43.732Z,27.46
2023-07-26T18:25:10.629Z,27.51
2023-07-26T18:27:37.409Z,27.49
2023-07-26T18:30:04.187Z,27.38
2023-07-26T18:32:30.685Z,27.40
2023-07-26T18:34:57.187Z,27.37
2023-07-26T18:37:23.784Z,27.35
2023-07-26T18:39:50.269Z,27.17
2023-07-26T18:42:16.721Z,27.18
2023-07-26T18:44:43.158Z,27.20
2023-07-26T18:47:09.676Z,27.27
2023-07-26T18:49:36.534Z,27.23
2023-07-26T18:52:03.469Z,27.25
2023-07-26T18:54:29.955Z,27.27
2023-07-26T18:56:56.506Z,26.98
2023-07-26T18:59:23.044Z,26.75
2023-07-26T19:01:49.650Z,26.60
2023-07-26T19:04:18.229Z,26.51
2023-07-26T19:06:44.982Z,26.47
2023-07-26T19:09:11.421Z,26.41
2023-07-26T19:11:37.882Z,26.26
2023-07-26T19:14:04.346Z,26.28
2023-07-26T19:16:31.651Z,26.30
2023-07-26T19:18:58.389Z,26.10
2023-07-26T19:21:24.896Z,26.01
2023-07-26T19:23:53.288Z,25.87
2023-07-26T19:26:21.101Z,25.82
2023-07-26T19:28:47.868Z,25.82
2023-07-26T19:31:15.496Z,25.91
2023-07-26T19:33:45.869Z,25.74
2023-07-26T19:36:12.319Z,25.60
2023-07-26T19:38:39.047Z,25.54
2023-07-26T19:41:10.061Z,25.46
2023-07-26T19:43:37.672Z,25.50
2023-07-26T19:46:07.372Z,25.43
2023-07-26T19:48:33.943Z,25.46
2023-07-26T19:51:01.292Z,25.24
2023-07-26T19:53:27.972Z,25.20
2023-07-26T19:55:54.493Z,25.22
2023-07-26T19:58:20.902Z,25.19
2023-07-26T20:00:47.362Z,25.00
2023-07-26T20:03:13.861Z,24.96
2023-07-26T20:05:46.338Z,24.96
2023-07-26T20:08:14.372Z,25.00
2023-07-26T20:10:42.245Z,24.84
2023-07-26T20:13:09.962Z,24.88
2023-07-26T20:15:36.406Z,25.00
2023-07-26T20:18:02.997Z,25.02
2023-07-26T20:20:29.573Z,24.97
2023-07-26T20:22:55.985Z,25.00
2023-07-26T20:25:25.347Z,24.86
2023-07-26T20:27:51.801Z,24.76
2023-07-26T20:30:18.319Z,24.98
2023-07-26T20:32:44.774Z,24.90
2023-07-26T20:35:11.305Z,24.99
2023-07-26T20:37:37.758Z,24.92
2023-07-26T20:40:04.857Z,24.92
2023-07-26T20:42:31.565Z,24.77
2023-07-26T20:44:58.086Z,24.78
2023-07-26T20:47:24.961Z,24.64
2023-07-26T20:49:51.959Z,24.60
2023-07-26T20:52:18.810Z,24.60
2023-07-26T20:54:45.237Z,24.48
2023-07-26T20:57:11.737Z,24.37
2023-07-26T20:59:38.170Z,24.36
2023-07-26T21:02:04.701Z,24.30
2023-07-26T21:04:31.146Z,24.44
2023-07-26T21:06:57.590Z,24.36
2023-07-26T21:09:24.157Z,24.41
2023-07-26T21:11:50.634Z,24.34
2023-07-26T21:14:17.129Z,24.32
2023-07-26T21:16:43.588Z,24.23
2023-07-26T21:19:10.092Z,24.22
2023-07-26T21:21:36.651Z,24.26
2023-07-26T21:24:03.208Z,24.29
2023-07-26T21:26:29.914Z,24.34
2023-07-26T21:28:56.384Z,24.42
2023-07-26T21:31:24.606Z,24.44
2023-07-26T21:33:51.172Z,24.34
2023-07-26T21:36:17.636Z,24.23
2023-07-26T21:38:45.174Z,24.33
2023-07-26T21:41:11.592Z,24.34
2023-07-26T21:43:38.117Z,24.27
2023-07-26T21:46:04.786Z,24.25
2023-07-26T21:48:31.328Z,24.26
2023-07-26T21:50:57.765Z,24.29
2023-07-26T21:53:24.215Z,24.24
2023-07-26T21:55:50.731Z,24.26
2023-07-26T21:58:17.156Z,24.30
2023-07-26T22:00:45.471Z,24.29
2023-07-26T22:03:11.905Z,24.26
2023-07-26T22:05:38.395Z,24.17
2023-07-26T22:08:05.105Z,24.25
2023-07-26T22:10:31.552Z,24.38
2023-07-26T22:12:58.038Z,24.20
2023-07-26T22:15:24.922Z,24.19
2023-07-26T22:17:51.413Z,24.17
2023-07-26T22:20:18.316Z,24.12
2023-07-26T22:22:44.784Z,24.25
2023-07-26T22:25:11.257Z,24.23
2023-07-26T22:27:37.728Z,24.19
2023-07-26T22:30:05.183Z,24.13
2023-07-26T22:32:32.096Z,23.96
2023-07-26T22:34:58.858Z,24.05
2023-07-26T22:37:25.369Z,24.05
2023-07-26T22:39:51.800Z,24.07
2023-07-26T22:42:18.288Z,24.02
2023-07-26T22:44:45.323Z,23.98
2023-07-26T22:47:11.943Z,23.92
2023-07-26T22:49:38.410Z,23.93
2023-07-26T22:52:05.371Z,23.90
2023-07-26T22:54:31.867Z,23.67
2023-07-26T22:56:58.400Z,23.57
2023-07-26T22:59:24.836Z,23.45
2023-07-26T23:01:51.271Z,23.42
2023-07-26T23:04:17.722Z,23.35
2023-07-26T23:06:44.252Z,23.29
2023-07-26T23:09:10.728Z,23.23
2023-07-26T23:11:37.220Z,23.29
2023-07-26T23:14:03.687Z,23.27
2023-07-26T23:16:30.157Z,23.11
2023-07-26T23:18:56.644Z,23.12
2023-07-26T23:21:23.076Z,23.25
2023-07-26T23:23:49.653Z,23.09
2023-07-26T23:26:16.236Z,23.04
2023-07-26T23:28:42.639Z,22.94
2023-07-26T23:31:09.088Z,22.84
2023-07-26T23:33:35.857Z,22.81
2023-07-26T23:36:02.307Z,22.83
2023-07-26T23:38:28.753Z,22.72
2023-07-26T23:40:55.264Z,22.58
2023-07-26T23:43:21.744Z,22.49
2023-07-26T23:45:48.157Z,22.46
2023-07-26T23:48:14.598Z,22.32
2023-07-26T23:50:41.040Z,22.21
2023-07-26T23:53:07.516Z,22.04
2023-07-26T23:55:33.962Z,22.46
2023-07-26T23:58:00.475Z,22.35
